sensor_id;sensor_type;location;lat;lon;timestamp;P1;durP1;ratioP1;P2;durP2;ratioP2
9960;SDS011;5021;51.506;11.320;2023-12-28T00:01:37;8.47;;;6.20;;
9960;SDS011;5021;51.506;11.320;2023-12-28T00:04:03;8.07;;;6.67;;
9960;SDS011;5021;51.506;11.320;2023-12-28T00:06:29;10.43;;;7.43;;
9960;SDS011;5021;51.506;11.320;2023-12-28T00:08:55;9.50;;;6.93;;
9960;SDS011;5021;51.506;11.320;2023-12-28T00:11:21;9.97;;;6.53;;
9960;SDS011;5021;51.506;11.320;2023-12-28T00:13:48;8.60;;;6.50;;
9960;SDS011;5021;51.506;11.320;2023-12-28T00:16:14;8.37;;;6.60;;
9960;SDS011;5021;51.506;11.320;2023-12-28T00:18:40;8.50;;;6.23;;
9960;SDS011;5021;51.506;11.320;2023-12-28T00:21:06;8.87;;;6.27;;
9960;SDS011;5021;51.506;11.320;2023-12-28T00:23:32;7.60;;;6.33;;
9960;SDS011;5021;51.506;11.320;2023-12-28T00:25:57;10.40;;;6.97;;
9960;SDS011;5021;51.506;11.320;2023-12-28T00:28:23;6.53;;;5.50;;
9960;SDS011;5021;51.506;11.320;2023-12-28T00:30:49;8.00;;;5.83;;
9960;SDS011;5021;51.506;11.320;2023-12-28T00:33:16;7.73;;;6.10;;
9960;SDS011;5021;51.506;11.320;2023-12-28T00:35:42;6.43;;;5.43;;
9960;SDS011;5021;51.506;11.320;2023-12-28T00:38:08;6.27;;;3.90;;
9960;SDS011;5021;51.506;11.320;2023-12-28T00:40:33;8.00;;;4.83;;
9960;SDS011;5021;51.506;11.320;2023-12-28T00:42:59;4.70;;;3.47;;
9960;SDS011;5021;51.506;11.320;2023-12-28T00:45:25;8.23;;;4.43;;
9960;SDS011;5021;51.506;11.320;2023-12-28T00:47:51;5.30;;;3.93;;
9960;SDS011;5021;51.506;11.320;2023-12-28T00:50:20;6.37;;;4.60;;
9960;SDS011;5021;51.506;11.320;2023-12-28T00:52:46;4.03;;;3.63;;
9960;SDS011;5021;51.506;11.320;2023-12-28T00:55:12;4.70;;;4.10;;
9960;SDS011;5021;51.506;11.320;2023-12-28T00:57:38;4.10;;;3.70;;
9960;SDS011;5021;51.506;11.320;2023-12-28T01:00:04;4.40;;;3.90;;
9960;SDS011;5021;51.506;11.320;2023-12-28T01:02:30;5.10;;;3.57;;
9960;SDS011;5021;51.506;11.320;2023-12-28T01:04:56;6.10;;;3.40;;
9960;SDS011;5021;51.506;11.320;2023-12-28T01:07:22;7.03;;;3.53;;
9960;SDS011;5021;51.506;11.320;2023-12-28T01:09:48;6.47;;;3.97;;
9960;SDS011;5021;51.506;11.320;2023-12-28T01:12:14;6.17;;;3.33;;
9960;SDS011;5021;51.506;11.320;2023-12-28T01:14:39;6.40;;;4.40;;
9960;SDS011;5021;51.506;11.320;2023-12-28T01:17:05;4.07;;;3.67;;
9960;SDS011;5021;51.506;11.320;2023-12-28T01:19:31;5.23;;;3.40;;
9960;SDS011;5021;51.506;11.320;2023-12-28T01:21:57;5.70;;;3.93;;
9960;SDS011;5021;51.506;11.320;2023-12-28T01:24:23;4.67;;;3.50;;
9960;SDS011;5021;51.506;11.320;2023-12-28T01:26:50;4.80;;;3.63;;
9960;SDS011;5021;51.506;11.320;2023-12-28T01:29:16;6.03;;;3.90;;
9960;SDS011;5021;51.506;11.320;2023-12-28T01:31:42;4.77;;;3.60;;
9960;SDS011;5021;51.506;11.320;2023-12-28T01:34:07;5.17;;;3.80;;
9960;SDS011;5021;51.506;11.320;2023-12-28T01:36:34;6.60;;;4.20;;
9960;SDS011;5021;51.506;11.320;2023-12-28T01:39:00;6.17;;;4.27;;
9960;SDS011;5021;51.506;11.320;2023-12-28T01:41:26;7.87;;;4.50;;
9960;SDS011;5021;51.506;11.320;2023-12-28T01:43:52;7.20;;;5.33;;
9960;SDS011;5021;51.506;11.320;2023-12-28T01:46:18;7.73;;;5.10;;
9960;SDS011;5021;51.506;11.320;2023-12-28T01:48:45;6.67;;;4.90;;
9960;SDS011;5021;51.506;11.320;2023-12-28T01:51:12;5.63;;;4.30;;
9960;SDS011;5021;51.506;11.320;2023-12-28T01:53:39;5.83;;;4.03;;
9960;SDS011;5021;51.506;11.320;2023-12-28T01:56:05;5.43;;;4.47;;
9960;SDS011;5021;51.506;11.320;2023-12-28T01:58:32;5.43;;;4.37;;
9960;SDS011;5021;51.506;11.320;2023-12-28T02:00:58;4.37;;;3.50;;
9960;SDS011;5021;51.506;11.320;2023-12-28T02:03:24;8.00;;;4.53;;
9960;SDS011;5021;51.506;11.320;2023-12-28T02:05:51;6.77;;;4.03;;
9960;SDS011;5021;51.506;11.320;2023-12-28T02:08:17;7.93;;;4.10;;
9960;SDS011;5021;51.506;11.320;2023-12-28T02:10:43;7.37;;;3.87;;
9960;SDS011;5021;51.506;11.320;2023-12-28T02:13:09;6.03;;;4.37;;
9960;SDS011;5021;51.506;11.320;2023-12-28T02:15:35;6.47;;;4.87;;
9960;SDS011;5021;51.506;11.320;2023-12-28T02:18:15;5.00;;;4.10;;
9960;SDS011;5021;51.506;11.320;2023-12-28T02:20:43;6.10;;;4.20;;
9960;SDS011;5021;51.506;11.320;2023-12-28T02:23:10;6.97;;;4.20;;
9960;SDS011;5021;51.506;11.320;2023-12-28T02:25:36;7.00;;;4.43;;
9960;SDS011;5021;51.506;11.320;2023-12-28T02:28:02;4.70;;;3.47;;
9960;SDS011;5021;51.506;11.320;2023-12-28T02:30:28;5.37;;;3.97;;
9960;SDS011;5021;51.506;11.320;2023-12-28T02:33:11;5.00;;;3.43;;
9960;SDS011;5021;51.506;11.320;2023-12-28T02:38:23;5.33;;;3.83;;
9960;SDS011;5021;51.506;11.320;2023-12-28T02:40:49;6.50;;;3.90;;
9960;SDS011;5021;51.506;11.320;2023-12-28T02:43:16;5.30;;;4.20;;
9960;SDS011;5021;51.506;11.320;2023-12-28T02:45:42;6.93;;;4.50;;
9960;SDS011;5021;51.506;11.320;2023-12-28T02:48:08;5.70;;;4.30;;
9960;SDS011;5021;51.506;11.320;2023-12-28T02:50:34;4.93;;;3.90;;
9960;SDS011;5021;51.506;11.320;2023-12-28T02:53:00;5.03;;;3.87;;
9960;SDS011;5021;51.506;11.320;2023-12-28T02:55:26;4.77;;;3.73;;
9960;SDS011;5021;51.506;11.320;2023-12-28T02:57:54;4.93;;;3.60;;
9960;SDS011;5021;51.506;11.320;2023-12-28T03:00:20;4.70;;;3.67;;
9960;SDS011;5021;51.506;11.320;2023-12-28T03:02:46;4.10;;;3.33;;
9960;SDS011;5021;51.506;11.320;2023-12-28T03:05:12;4.47;;;3.30;;
9960;SDS011;5021;51.506;11.320;2023-12-28T03:07:38;4.07;;;3.13;;
9960;SDS011;5021;51.506;11.320;2023-12-28T03:10:05;4.67;;;3.00;;
9960;SDS011;5021;51.506;11.320;2023-12-28T03:12:31;3.33;;;2.60;;
9960;SDS011;5021;51.506;11.320;2023-12-28T03:14:57;4.13;;;3.07;;
9960;SDS011;5021;51.506;11.320;2023-12-28T03:17:23;3.27;;;2.83;;
9960;SDS011;5021;51.506;11.320;2023-12-28T03:19:49;3.50;;;2.67;;
9960;SDS011;5021;51.506;11.320;2023-12-28T03:22:15;5.00;;;2.57;;
9960;SDS011;5021;51.506;11.320;2023-12-28T03:24:42;2.70;;;2.50;;
9960;SDS011;5021;51.506;11.320;2023-12-28T03:27:08;4.20;;;2.60;;
9960;SDS011;5021;51.506;11.320;2023-12-28T03:29:34;2.80;;;2.50;;
9960;SDS011;5021;51.506;11.320;2023-12-28T03:32:00;4.43;;;2.60;;
9960;SDS011;5021;51.506;11.320;2023-12-28T03:34:26;3.80;;;2.50;;
9960;SDS011;5021;51.506;11.320;2023-12-28T03:36:54;4.17;;;2.53;;
9960;SDS011;5021;51.506;11.320;2023-12-28T03:39:20;4.93;;;2.83;;
9960;SDS011;5021;51.506;11.320;2023-12-28T03:41:46;3.43;;;2.67;;
9960;SDS011;5021;51.506;11.320;2023-12-28T03:44:13;3.67;;;2.53;;
9960;SDS011;5021;51.506;11.320;2023-12-28T03:46:39;2.73;;;2.30;;
9960;SDS011;5021;51.506;11.320;2023-12-28T03:49:05;3.10;;;2.80;;
9960;SDS011;5021;51.506;11.320;2023-12-28T03:51:30;3.40;;;2.40;;
9960;SDS011;5021;51.506;11.320;2023-12-28T03:53:56;2.70;;;2.20;;
9960;SDS011;5021;51.506;11.320;2023-12-28T03:56:24;3.53;;;2.50;;
9960;SDS011;5021;51.506;11.320;2023-12-28T03:58:50;3.77;;;2.63;;
9960;SDS011;5021;51.506;11.320;2023-12-28T04:01:17;4.73;;;2.80;;
9960;SDS011;5021;51.506;11.320;2023-12-28T04:03:44;4.37;;;2.97;;
9960;SDS011;5021;51.506;11.320;2023-12-28T04:06:10;3.50;;;2.60;;
9960;SDS011;5021;51.506;11.320;2023-12-28T04:08:35;2.93;;;2.50;;
9960;SDS011;5021;51.506;11.320;2023-12-28T04:11:01;3.30;;;2.50;;
9960;SDS011;5021;51.506;11.320;2023-12-28T04:13:27;3.33;;;2.53;;
9960;SDS011;5021;51.506;11.320;2023-12-28T04:15:53;3.90;;;3.13;;
9960;SDS011;5021;51.506;11.320;2023-12-28T04:18:19;3.00;;;2.70;;
9960;SDS011;5021;51.506;11.320;2023-12-28T04:20:45;4.43;;;2.60;;
9960;SDS011;5021;51.506;11.320;2023-12-28T04:23:11;4.10;;;2.87;;
9960;SDS011;5021;51.506;11.320;2023-12-28T04:25:37;3.67;;;2.73;;
9960;SDS011;5021;51.506;11.320;2023-12-28T04:28:03;4.37;;;2.67;;
9960;SDS011;5021;51.506;11.320;2023-12-28T04:30:29;2.97;;;2.37;;
9960;SDS011;5021;51.506;11.320;2023-12-28T04:32:55;3.20;;;2.50;;
9960;SDS011;5021;51.506;11.320;2023-12-28T04:35:21;3.10;;;2.63;;
9960;SDS011;5021;51.506;11.320;2023-12-28T04:37:47;3.30;;;2.60;;
9960;SDS011;5021;51.506;11.320;2023-12-28T04:40:13;4.57;;;2.57;;
9960;SDS011;5021;51.506;11.320;2023-12-28T04:42:39;4.33;;;2.83;;
9960;SDS011;5021;51.506;11.320;2023-12-28T04:45:06;3.80;;;2.67;;
9960;SDS011;5021;51.506;11.320;2023-12-28T04:47:32;3.10;;;2.80;;
9960;SDS011;5021;51.506;11.320;2023-12-28T04:49:58;2.97;;;2.67;;
9960;SDS011;5021;51.506;11.320;2023-12-28T04:52:24;3.40;;;2.80;;
9960;SDS011;5021;51.506;11.320;2023-12-28T04:54:49;5.20;;;2.70;;
9960;SDS011;5021;51.506;11.320;2023-12-28T04:57:16;4.17;;;2.70;;
9960;SDS011;5021;51.506;11.320;2023-12-28T04:59:41;4.20;;;2.83;;
9960;SDS011;5021;51.506;11.320;2023-12-28T05:02:07;3.73;;;2.70;;
9960;SDS011;5021;51.506;11.320;2023-12-28T05:04:36;3.70;;;2.67;;
9960;SDS011;5021;51.506;11.320;2023-12-28T05:07:05;3.67;;;2.63;;
9960;SDS011;5021;51.506;11.320;2023-12-28T05:09:31;3.87;;;2.90;;
9960;SDS011;5021;51.506;11.320;2023-12-28T05:11:57;3.30;;;2.80;;
9960;SDS011;5021;51.506;11.320;2023-12-28T05:14:23;4.80;;;2.80;;
9960;SDS011;5021;51.506;11.320;2023-12-28T05:16:49;3.53;;;2.60;;
9960;SDS011;5021;51.506;11.320;2023-12-28T05:19:15;3.37;;;3.00;;
9960;SDS011;5021;51.506;11.320;2023-12-28T05:21:41;3.93;;;2.77;;
9960;SDS011;5021;51.506;11.320;2023-12-28T05:24:07;3.17;;;2.87;;
9960;SDS011;5021;51.506;11.320;2023-12-28T05:26:33;3.33;;;2.60;;
9960;SDS011;5021;51.506;11.320;2023-12-28T05:28:59;3.47;;;2.80;;
9960;SDS011;5021;51.506;11.320;2023-12-28T05:31:25;3.37;;;3.00;;
9960;SDS011;5021;51.506;11.320;2023-12-28T05:33:51;3.50;;;2.70;;
9960;SDS011;5021;51.506;11.320;2023-12-28T05:36:17;4.73;;;2.60;;
9960;SDS011;5021;51.506;11.320;2023-12-28T05:38:43;3.67;;;3.27;;
9960;SDS011;5021;51.506;11.320;2023-12-28T05:41:09;4.53;;;3.03;;
9960;SDS011;5021;51.506;11.320;2023-12-28T05:43:38;3.57;;;2.90;;
9960;SDS011;5021;51.506;11.320;2023-12-28T05:46:04;3.03;;;2.43;;
9960;SDS011;5021;51.506;11.320;2023-12-28T05:48:30;3.60;;;3.13;;
9960;SDS011;5021;51.506;11.320;2023-12-28T05:50:57;3.60;;;2.83;;
9960;SDS011;5021;51.506;11.320;2023-12-28T05:53:23;4.73;;;3.23;;
9960;SDS011;5021;51.506;11.320;2023-12-28T05:55:49;4.13;;;3.10;;
9960;SDS011;5021;51.506;11.320;2023-12-28T05:58:15;4.27;;;2.80;;
9960;SDS011;5021;51.506;11.320;2023-12-28T06:00:41;3.57;;;3.00;;
9960;SDS011;5021;51.506;11.320;2023-12-28T06:03:07;3.57;;;2.93;;
9960;SDS011;5021;51.506;11.320;2023-12-28T06:05:33;3.53;;;3.00;;
9960;SDS011;5021;51.506;11.320;2023-12-28T06:07:59;4.80;;;3.50;;
9960;SDS011;5021;51.506;11.320;2023-12-28T06:10:25;3.70;;;2.90;;
9960;SDS011;5021;51.506;11.320;2023-12-28T06:12:51;4.27;;;2.93;;
9960;SDS011;5021;51.506;11.320;2023-12-28T06:15:17;4.20;;;3.27;;
9960;SDS011;5021;51.506;11.320;2023-12-28T06:17:43;4.77;;;3.20;;
9960;SDS011;5021;51.506;11.320;2023-12-28T06:20:09;5.33;;;3.03;;
9960;SDS011;5021;51.506;11.320;2023-12-28T06:22:38;3.63;;;3.00;;
9960;SDS011;5021;51.506;11.320;2023-12-28T06:25:04;3.80;;;2.83;;
9960;SDS011;5021;51.506;11.320;2023-12-28T06:27:31;4.70;;;3.30;;
9960;SDS011;5021;51.506;11.320;2023-12-28T06:29:57;4.50;;;2.80;;
9960;SDS011;5021;51.506;11.320;2023-12-28T06:32:22;3.87;;;3.43;;
9960;SDS011;5021;51.506;11.320;2023-12-28T06:34:48;3.87;;;3.00;;
9960;SDS011;5021;51.506;11.320;2023-12-28T06:37:15;3.47;;;3.17;;
9960;SDS011;5021;51.506;11.320;2023-12-28T06:39:41;4.83;;;3.00;;
9960;SDS011;5021;51.506;11.320;2023-12-28T06:42:07;3.90;;;3.30;;
9960;SDS011;5021;51.506;11.320;2023-12-28T06:44:33;3.90;;;2.77;;
9960;SDS011;5021;51.506;11.320;2023-12-28T06:46:59;4.37;;;3.07;;
9960;SDS011;5021;51.506;11.320;2023-12-28T06:49:25;5.80;;;4.27;;
9960;SDS011;5021;51.506;11.320;2023-12-28T06:51:51;5.80;;;4.73;;
9960;SDS011;5021;51.506;11.320;2023-12-28T06:54:17;5.63;;;4.57;;
9960;SDS011;5021;51.506;11.320;2023-12-28T06:56:43;5.33;;;4.30;;
9960;SDS011;5021;51.506;11.320;2023-12-28T06:59:09;4.83;;;4.33;;
9960;SDS011;5021;51.506;11.320;2023-12-28T07:01:37;5.17;;;4.50;;
9960;SDS011;5021;51.506;11.320;2023-12-28T07:04:03;4.50;;;3.70;;
9960;SDS011;5021;51.506;11.320;2023-12-28T07:06:29;5.10;;;3.37;;
9960;SDS011;5021;51.506;11.320;2023-12-28T07:08:55;4.60;;;3.90;;
9960;SDS011;5021;51.506;11.320;2023-12-28T07:11:21;5.17;;;3.00;;
9960;SDS011;5021;51.506;11.320;2023-12-28T07:13:47;5.33;;;3.27;;
9960;SDS011;5021;51.506;11.320;2023-12-28T07:16:13;6.43;;;2.90;;
9960;SDS011;5021;51.506;11.320;2023-12-28T07:18:39;5.37;;;2.90;;
9960;SDS011;5021;51.506;11.320;2023-12-28T07:21:05;4.47;;;2.57;;
9960;SDS011;5021;51.506;11.320;2023-12-28T07:23:34;3.83;;;2.87;;
9960;SDS011;5021;51.506;11.320;2023-12-28T07:26:00;3.40;;;2.80;;
9960;SDS011;5021;51.506;11.320;2023-12-28T07:28:26;3.47;;;3.10;;
9960;SDS011;5021;51.506;11.320;2023-12-28T07:30:52;4.10;;;3.43;;
9960;SDS011;5021;51.506;11.320;2023-12-28T07:33:18;3.73;;;3.30;;
9960;SDS011;5021;51.506;11.320;2023-12-28T07:35:44;5.17;;;3.23;;
9960;SDS011;5021;51.506;11.320;2023-12-28T07:38:10;4.47;;;3.43;;
9960;SDS011;5021;51.506;11.320;2023-12-28T07:40:36;4.30;;;3.27;;
9960;SDS011;5021;51.506;11.320;2023-12-28T07:43:02;5.13;;;4.23;;
9960;SDS011;5021;51.506;11.320;2023-12-28T07:45:28;5.10;;;3.67;;
9960;SDS011;5021;51.506;11.320;2023-12-28T07:47:54;7.87;;;4.10;;
9960;SDS011;5021;51.506;11.320;2023-12-28T07:50:20;3.97;;;3.57;;
9960;SDS011;5021;51.506;11.320;2023-12-28T07:52:46;5.70;;;4.10;;
9960;SDS011;5021;51.506;11.320;2023-12-28T07:55:12;4.53;;;3.80;;
9960;SDS011;5021;51.506;11.320;2023-12-28T07:57:39;4.30;;;3.90;;
9960;SDS011;5021;51.506;11.320;2023-12-28T08:00:05;6.57;;;4.20;;
9960;SDS011;5021;51.506;11.320;2023-12-28T08:02:31;5.53;;;4.03;;
9960;SDS011;5021;51.506;11.320;2023-12-28T08:04:57;4.57;;;3.80;;
9960;SDS011;5021;51.506;11.320;2023-12-28T08:07:23;3.93;;;3.50;;
9960;SDS011;5021;51.506;11.320;2023-12-28T08:09:49;4.07;;;3.67;;
9960;SDS011;5021;51.506;11.320;2023-12-28T08:12:15;4.83;;;3.93;;
9960;SDS011;5021;51.506;11.320;2023-12-28T08:14:42;7.40;;;4.20;;
9960;SDS011;5021;51.506;11.320;2023-12-28T08:17:08;4.10;;;3.57;;
9960;SDS011;5021;51.506;11.320;2023-12-28T08:19:34;6.00;;;4.20;;
9960;SDS011;5021;51.506;11.320;2023-12-28T08:22:00;4.30;;;3.90;;
9960;SDS011;5021;51.506;11.320;2023-12-28T08:24:27;4.73;;;4.33;;
9960;SDS011;5021;51.506;11.320;2023-12-28T08:26:53;5.03;;;4.53;;
9960;SDS011;5021;51.506;11.320;2023-12-28T08:29:23;6.27;;;4.40;;
9960;SDS011;5021;51.506;11.320;2023-12-28T08:31:49;6.03;;;3.90;;
9960;SDS011;5021;51.506;11.320;2023-12-28T08:34:15;4.43;;;4.03;;
9960;SDS011;5021;51.506;11.320;2023-12-28T08:36:41;5.87;;;4.07;;
9960;SDS011;5021;51.506;11.320;2023-12-28T08:39:07;4.37;;;3.97;;
9960;SDS011;5021;51.506;11.320;2023-12-28T08:41:32;5.80;;;3.80;;
9960;SDS011;5021;51.506;11.320;2023-12-28T08:43:58;4.30;;;3.90;;
9960;SDS011;5021;51.506;11.320;2023-12-28T08:46:24;4.67;;;4.20;;
9960;SDS011;5021;51.506;11.320;2023-12-28T08:48:50;4.27;;;3.83;;
9960;SDS011;5021;51.506;11.320;2023-12-28T08:51:16;5.53;;;4.23;;
9960;SDS011;5021;51.506;11.320;2023-12-28T08:53:42;4.50;;;4.00;;
9960;SDS011;5021;51.506;11.320;2023-12-28T08:56:19;4.00;;;3.60;;
9960;SDS011;5021;51.506;11.320;2023-12-28T08:58:45;4.23;;;3.83;;
9960;SDS011;5021;51.506;11.320;2023-12-28T09:01:18;4.57;;;3.80;;
9960;SDS011;5021;51.506;11.320;2023-12-28T09:03:47;4.27;;;3.87;;
9960;SDS011;5021;51.506;11.320;2023-12-28T09:06:13;5.50;;;3.63;;
9960;SDS011;5021;51.506;11.320;2023-12-28T09:08:41;4.33;;;3.60;;
9960;SDS011;5021;51.506;11.320;2023-12-28T09:11:09;4.53;;;3.77;;
9960;SDS011;5021;51.506;11.320;2023-12-28T09:13:34;4.97;;;4.10;;
9960;SDS011;5021;51.506;11.320;2023-12-28T09:16:00;4.30;;;3.90;;
9960;SDS011;5021;51.506;11.320;2023-12-28T09:18:26;5.03;;;4.07;;
9960;SDS011;5021;51.506;11.320;2023-12-28T09:20:52;4.20;;;3.80;;
9960;SDS011;5021;51.506;11.320;2023-12-28T09:23:18;4.93;;;4.30;;
9960;SDS011;5021;51.506;11.320;2023-12-28T09:25:44;5.13;;;4.63;;
9960;SDS011;5021;51.506;11.320;2023-12-28T09:28:10;4.63;;;4.10;;
9960;SDS011;5021;51.506;11.320;2023-12-28T09:30:36;4.50;;;4.03;;
9960;SDS011;5021;51.506;11.320;2023-12-28T09:33:02;4.20;;;3.70;;
9960;SDS011;5021;51.506;11.320;2023-12-28T09:35:28;5.63;;;4.20;;
9960;SDS011;5021;51.506;11.320;2023-12-28T09:37:54;4.27;;;3.87;;
9960;SDS011;5021;51.506;11.320;2023-12-28T09:40:21;4.50;;;3.63;;
9960;SDS011;5021;51.506;11.320;2023-12-28T09:43:12;4.27;;;3.87;;
9960;SDS011;5021;51.506;11.320;2023-12-28T09:45:33;5.20;;;4.10;;
9960;SDS011;5021;51.506;11.320;2023-12-28T09:47:59;4.43;;;3.93;;
9960;SDS011;5021;51.506;11.320;2023-12-28T09:50:25;5.40;;;4.23;;
9960;SDS011;5021;51.506;11.320;2023-12-28T09:52:52;4.63;;;4.13;;
9960;SDS011;5021;51.506;11.320;2023-12-28T09:55:18;5.67;;;4.17;;
9960;SDS011;5021;51.506;11.320;2023-12-28T09:57:44;4.93;;;3.60;;
9960;SDS011;5021;51.506;11.320;2023-12-28T10:00:11;4.53;;;3.77;;
9960;SDS011;5021;51.506;11.320;2023-12-28T10:02:39;5.23;;;3.67;;
9960;SDS011;5021;51.506;11.320;2023-12-28T10:05:06;4.23;;;3.47;;
9960;SDS011;5021;51.506;11.320;2023-12-28T10:07:32;3.70;;;3.30;;
9960;SDS011;5021;51.506;11.320;2023-12-28T10:09:58;3.70;;;3.23;;
9960;SDS011;5021;51.506;11.320;2023-12-28T10:12:25;3.83;;;3.37;;
9960;SDS011;5021;51.506;11.320;2023-12-28T10:14:52;4.00;;;3.60;;
9960;SDS011;5021;51.506;11.320;2023-12-28T10:17:19;4.00;;;3.50;;
9960;SDS011;5021;51.506;11.320;2023-12-28T10:19:44;4.57;;;3.70;;
9960;SDS011;5021;51.506;11.320;2023-12-28T10:22:13;4.50;;;3.90;;
9960;SDS011;5021;51.506;11.320;2023-12-28T10:24:45;4.80;;;3.40;;
9960;SDS011;5021;51.506;11.320;2023-12-28T10:27:13;3.70;;;3.10;;
9960;SDS011;5021;51.506;11.320;2023-12-28T10:29:39;6.13;;;3.63;;
9960;SDS011;5021;51.506;11.320;2023-12-28T10:32:05;5.40;;;3.57;;
9960;SDS011;5021;51.506;11.320;2023-12-28T10:34:31;5.70;;;3.43;;
9960;SDS011;5021;51.506;11.320;2023-12-28T10:36:58;4.40;;;3.83;;
9960;SDS011;5021;51.506;11.320;2023-12-28T10:39:24;5.17;;;3.50;;
9960;SDS011;5021;51.506;11.320;2023-12-28T10:41:51;4.57;;;3.53;;
9960;SDS011;5021;51.506;11.320;2023-12-28T10:44:20;4.57;;;3.80;;
9960;SDS011;5021;51.506;11.320;2023-12-28T10:46:49;3.90;;;3.40;;
9960;SDS011;5021;51.506;11.320;2023-12-28T10:49:16;4.60;;;3.23;;
9960;SDS011;5021;51.506;11.320;2023-12-28T10:51:43;5.07;;;3.43;;
9960;SDS011;5021;51.506;11.320;2023-12-28T10:56:42;3.80;;;3.50;;
9960;SDS011;5021;51.506;11.320;2023-12-28T11:01:54;4.63;;;3.73;;
9960;SDS011;5021;51.506;11.320;2023-12-28T11:04:23;3.77;;;3.47;;
9960;SDS011;5021;51.506;11.320;2023-12-28T11:06:50;5.70;;;3.57;;
9960;SDS011;5021;51.506;11.320;2023-12-28T11:09:16;3.97;;;3.13;;
9960;SDS011;5021;51.506;11.320;2023-12-28T11:11:43;4.60;;;3.00;;
9960;SDS011;5021;51.506;11.320;2023-12-28T11:14:09;3.93;;;3.30;;
9960;SDS011;5021;51.506;11.320;2023-12-28T11:16:36;5.30;;;3.30;;
9960;SDS011;5021;51.506;11.320;2023-12-28T11:19:03;5.10;;;2.90;;
9960;SDS011;5021;51.506;11.320;2023-12-28T11:21:29;3.70;;;2.97;;
9960;SDS011;5021;51.506;11.320;2023-12-28T11:23:55;4.47;;;3.27;;
9960;SDS011;5021;51.506;11.320;2023-12-28T11:26:22;4.23;;;3.00;;
9960;SDS011;5021;51.506;11.320;2023-12-28T11:28:48;4.13;;;2.80;;
9960;SDS011;5021;51.506;11.320;2023-12-28T11:31:14;2.97;;;2.63;;
9960;SDS011;5021;51.506;11.320;2023-12-28T11:33:44;3.33;;;2.50;;
9960;SDS011;5021;51.506;11.320;2023-12-28T11:36:10;3.37;;;2.57;;
9960;SDS011;5021;51.506;11.320;2023-12-28T11:38:37;3.13;;;2.30;;
9960;SDS011;5021;51.506;11.320;2023-12-28T11:41:04;3.03;;;2.47;;
9960;SDS011;5021;51.506;11.320;2023-12-28T11:43:34;2.90;;;2.23;;
9960;SDS011;5021;51.506;11.320;2023-12-28T11:46:00;4.00;;;2.80;;
9960;SDS011;5021;51.506;11.320;2023-12-28T11:48:30;3.13;;;2.50;;
9960;SDS011;5021;51.506;11.320;2023-12-28T11:50:56;2.80;;;2.33;;
9960;SDS011;5021;51.506;11.320;2023-12-28T11:53:23;2.80;;;2.50;;
9960;SDS011;5021;51.506;11.320;2023-12-28T11:55:49;2.80;;;2.13;;
9960;SDS011;5021;51.506;11.320;2023-12-28T11:58:16;3.40;;;2.63;;
9960;SDS011;5021;51.506;11.320;2023-12-28T12:00:43;4.47;;;3.00;;
9960;SDS011;5021;51.506;11.320;2023-12-28T12:03:12;2.80;;;2.40;;
9960;SDS011;5021;51.506;11.320;2023-12-28T12:05:38;3.03;;;2.40;;
9960;SDS011;5021;51.506;11.320;2023-12-28T12:08:05;4.23;;;2.40;;
9960;SDS011;5021;51.506;11.320;2023-12-28T12:10:33;3.07;;;2.50;;
9960;SDS011;5021;51.506;11.320;2023-12-28T12:12:59;2.70;;;2.17;;
9960;SDS011;5021;51.506;11.320;2023-12-28T12:15:25;3.97;;;2.50;;
9960;SDS011;5021;51.506;11.320;2023-12-28T12:17:52;6.17;;;2.50;;
9960;SDS011;5021;51.506;11.320;2023-12-28T12:20:18;3.00;;;2.40;;
9960;SDS011;5021;51.506;11.320;2023-12-28T12:22:44;3.07;;;2.23;;
9960;SDS011;5021;51.506;11.320;2023-12-28T12:25:10;3.60;;;2.30;;
9960;SDS011;5021;51.506;11.320;2023-12-28T12:27:36;3.20;;;2.60;;
9960;SDS011;5021;51.506;11.320;2023-12-28T12:30:03;3.67;;;2.70;;
9960;SDS011;5021;51.506;11.320;2023-12-28T12:32:29;3.90;;;2.30;;
9960;SDS011;5021;51.506;11.320;2023-12-28T12:34:56;2.77;;;2.10;;
9960;SDS011;5021;51.506;11.320;2023-12-28T12:37:22;4.47;;;2.40;;
9960;SDS011;5021;51.506;11.320;2023-12-28T12:39:49;3.73;;;2.73;;
9960;SDS011;5021;51.506;11.320;2023-12-28T12:42:15;3.20;;;2.20;;
9960;SDS011;5021;51.506;11.320;2023-12-28T12:44:41;3.37;;;2.30;;
9960;SDS011;5021;51.506;11.320;2023-12-28T12:47:07;3.70;;;2.00;;
9960;SDS011;5021;51.506;11.320;2023-12-28T12:49:33;3.30;;;2.20;;
9960;SDS011;5021;51.506;11.320;2023-12-28T12:52:00;4.50;;;2.50;;
9960;SDS011;5021;51.506;11.320;2023-12-28T12:54:26;2.73;;;2.07;;
9960;SDS011;5021;51.506;11.320;2023-12-28T12:56:53;4.57;;;2.80;;
9960;SDS011;5021;51.506;11.320;2023-12-28T12:59:21;2.73;;;2.00;;
9960;SDS011;5021;51.506;11.320;2023-12-28T13:01:47;3.30;;;1.87;;
9960;SDS011;5021;51.506;11.320;2023-12-28T13:04:14;3.07;;;1.90;;
9960;SDS011;5021;51.506;11.320;2023-12-28T13:06:41;2.50;;;2.10;;
9960;SDS011;5021;51.506;11.320;2023-12-28T13:09:07;3.47;;;2.03;;
9960;SDS011;5021;51.506;11.320;2023-12-28T13:11:33;2.90;;;1.73;;
9960;SDS011;5021;51.506;11.320;2023-12-28T13:13:59;3.13;;;2.30;;
9960;SDS011;5021;51.506;11.320;2023-12-28T13:16:25;3.40;;;1.97;;
9960;SDS011;5021;51.506;11.320;2023-12-28T13:18:51;2.60;;;1.90;;
9960;SDS011;5021;51.506;11.320;2023-12-28T13:21:17;5.43;;;1.80;;
9960;SDS011;5021;51.506;11.320;2023-12-28T13:23:43;2.60;;;1.90;;
9960;SDS011;5021;51.506;11.320;2023-12-28T13:26:09;3.90;;;2.07;;
9960;SDS011;5021;51.506;11.320;2023-12-28T13:28:35;5.60;;;2.20;;
9960;SDS011;5021;51.506;11.320;2023-12-28T13:31:00;4.10;;;2.20;;
9960;SDS011;5021;51.506;11.320;2023-12-28T13:33:26;3.03;;;2.13;;
9960;SDS011;5021;51.506;11.320;2023-12-28T13:35:52;4.43;;;2.10;;
9960;SDS011;5021;51.506;11.320;2023-12-28T13:38:18;5.00;;;2.40;;
9960;SDS011;5021;51.506;11.320;2023-12-28T13:40:44;3.17;;;1.93;;
9960;SDS011;5021;51.506;11.320;2023-12-28T13:43:10;3.60;;;2.20;;
9960;SDS011;5021;51.506;11.320;2023-12-28T13:45:36;3.37;;;1.83;;
9960;SDS011;5021;51.506;11.320;2023-12-28T13:48:02;2.97;;;2.00;;
9960;SDS011;5021;51.506;11.320;2023-12-28T13:50:28;3.43;;;2.17;;
9960;SDS011;5021;51.506;11.320;2023-12-28T13:52:55;3.93;;;2.30;;
9960;SDS011;5021;51.506;11.320;2023-12-28T13:55:21;4.00;;;3.00;;
9960;SDS011;5021;51.506;11.320;2023-12-28T13:57:48;6.20;;;3.13;;
9960;SDS011;5021;51.506;11.320;2023-12-28T14:00:14;4.07;;;3.37;;
9960;SDS011;5021;51.506;11.320;2023-12-28T14:02:40;4.00;;;2.40;;
9960;SDS011;5021;51.506;11.320;2023-12-28T14:05:07;5.00;;;2.97;;
9960;SDS011;5021;51.506;11.320;2023-12-28T14:07:33;4.17;;;2.50;;
9960;SDS011;5021;51.506;11.320;2023-12-28T14:09:59;3.87;;;1.83;;
9960;SDS011;5021;51.506;11.320;2023-12-28T14:12:25;3.70;;;2.00;;
9960;SDS011;5021;51.506;11.320;2023-12-28T14:14:51;2.70;;;2.10;;
9960;SDS011;5021;51.506;11.320;2023-12-28T14:17:17;2.43;;;2.00;;
9960;SDS011;5021;51.506;11.320;2023-12-28T14:19:44;5.37;;;2.17;;
9960;SDS011;5021;51.506;11.320;2023-12-28T14:22:11;3.07;;;2.27;;
9960;SDS011;5021;51.506;11.320;2023-12-28T14:24:37;2.97;;;2.10;;
9960;SDS011;5021;51.506;11.320;2023-12-28T14:27:03;2.97;;;2.03;;
9960;SDS011;5021;51.506;11.320;2023-12-28T14:29:29;2.37;;;2.00;;
9960;SDS011;5021;51.506;11.320;2023-12-28T14:31:56;3.37;;;2.10;;
9960;SDS011;5021;51.506;11.320;2023-12-28T14:34:22;1.80;;;1.70;;
9960;SDS011;5021;51.506;11.320;2023-12-28T14:36:48;3.30;;;2.10;;
9960;SDS011;5021;51.506;11.320;2023-12-28T14:39:15;3.40;;;2.20;;
9960;SDS011;5021;51.506;11.320;2023-12-28T14:41:45;3.13;;;2.47;;
9960;SDS011;5021;51.506;11.320;2023-12-28T14:44:11;3.33;;;2.20;;
9960;SDS011;5021;51.506;11.320;2023-12-28T14:46:37;4.23;;;2.40;;
9960;SDS011;5021;51.506;11.320;2023-12-28T14:49:03;3.43;;;2.40;;
9960;SDS011;5021;51.506;11.320;2023-12-28T14:51:29;2.57;;;2.10;;
9960;SDS011;5021;51.506;11.320;2023-12-28T14:53:56;6.00;;;2.80;;
9960;SDS011;5021;51.506;11.320;2023-12-28T14:56:21;3.77;;;2.90;;
9960;SDS011;5021;51.506;11.320;2023-12-28T14:58:47;6.50;;;3.27;;
9960;SDS011;5021;51.506;11.320;2023-12-28T15:01:14;3.97;;;2.80;;
9960;SDS011;5021;51.506;11.320;2023-12-28T15:03:40;4.40;;;3.63;;